sensor_id;sensor_type;location;lat;lon;timestamp;pressure;altitude;pressure_sealevel;temperature;humidity
71966;BME280;59836;52.132;5.442;2022-10-31T00:00:06;102135.41;;;12.06;92.09
71966;BME280;59836;52.132;5.442;2022-10-31T00:02:36;102129.41;;;12.04;92.00
71966;BME280;59836;52.132;5.442;2022-10-31T00:05:03;102133.78;;;12.05;92.33
71966;BME280;59836;52.132;5.442;2022-10-31T00:07:35;102129.97;;;12.06;92.20
71966;BME280;59836;52.132;5.442;2022-10-31T00:10:26;102139.22;;;12.05;92.08
71966;BME280;59836;52.132;5.442;2022-10-31T00:12:56;102126.09;;;12.02;92.25
71966;BME280;59836;52.132;5.442;2022-10-31T00:15:34;102139.44;;;12.04;92.20
71966;BME280;59836;52.132;5.442;2022-10-31T00:18:06;102130.72;;;12.02;92.33
71966;BME280;59836;52.132;5.442;2022-10-31T00:20:33;102134.25;;;12.02;92.46
71966;BME280;59836;52.132;5.442;2022-10-31T00:23:10;102135.06;;;12.03;92.25
71966;BME280;59836;52.132;5.442;2022-10-31T00:25:38;102146.78;;;12.03;92.61
71966;BME280;59836;52.132;5.442;2022-10-31T00:28:21;102132.63;;;12.01;92.43
71966;BME280;59836;52.132;5.442;2022-10-31T00:30:47;102144.31;;;12.02;92.26
71966;BME280;59836;52.132;5.442;2022-10-31T00:33:38;102145.13;;;12.02;91.87
71966;BME280;59836;52.132;5.442;2022-10-31T00:36:13;102150.00;;;12.00;92.09
71966;BME280;59836;52.132;5.442;2022-10-31T00:38:48;102150.81;;;12.01;92.30
71966;BME280;59836;52.132;5.442;2022-10-31T00:41:16;102141.00;;;12.00;92.52
71966;BME280;59836;52.132;5.442;2022-10-31T00:43:49;102151.53;;;11.96;92.57
71966;BME280;59836;52.132;5.442;2022-10-31T00:46:15;102149.63;;;11.96;92.47
71966;BME280;59836;52.132;5.442;2022-10-31T00:48:46;102142.31;;;11.97;91.90
71966;BME280;59836;52.132;5.442;2022-10-31T00:51:12;102152.59;;;11.95;92.48
71966;BME280;59836;52.132;5.442;2022-10-31T00:53:46;102150.69;;;11.95;92.40
71966;BME280;59836;52.132;5.442;2022-10-31T00:56:35;102154.25;;;11.96;92.32
71966;BME280;59836;52.132;5.442;2022-10-31T00:59:17;102159.13;;;11.94;92.02
71966;BME280;59836;52.132;5.442;2022-10-31T01:01:43;102154.25;;;11.96;92.25
71966;BME280;59836;52.132;5.442;2022-10-31T01:04:28;102150.97;;;11.94;92.61
71966;BME280;59836;52.132;5.442;2022-10-31T01:07:11;102156.97;;;11.96;92.41
71966;BME280;59836;52.132;5.442;2022-10-31T01:09:55;102148.25;;;11.94;92.60
71966;BME280;59836;52.132;5.442;2022-10-31T01:12:44;102142.81;;;11.94;92.28
71966;BME280;59836;52.132;5.442;2022-10-31T01:15:19;102144.38;;;11.90;91.92
71966;BME280;59836;52.132;5.442;2022-10-31T01:17:54;102153.25;;;11.85;91.95
71966;BME280;59836;52.132;5.442;2022-10-31T01:20:21;102140.97;;;11.82;91.88
71966;BME280;59836;52.132;5.442;2022-10-31T01:22:52;102155.38;;;11.83;92.01
71966;BME280;59836;52.132;5.442;2022-10-31T01:25:23;102138.50;;;11.81;91.57
71966;BME280;59836;52.132;5.442;2022-10-31T01:27:49;102134.38;;;11.78;92.00
71966;BME280;59836;52.132;5.442;2022-10-31T01:30:16;102125.66;;;11.76;91.85
71966;BME280;59836;52.132;5.442;2022-10-31T01:32:44;102123.16;;;11.75;91.93
71966;BME280;59836;52.132;5.442;2022-10-31T01:35:11;102119.06;;;11.72;91.95
71966;BME280;59836;52.132;5.442;2022-10-31T01:37:37;102126.63;;;11.70;91.65
71966;BME280;59836;52.132;5.442;2022-10-31T01:40:18;102125.47;;;11.66;91.93
71966;BME280;59836;52.132;5.442;2022-10-31T01:42:56;102129.75;;;11.62;91.65
71966;BME280;59836;52.132;5.442;2022-10-31T01:45:23;102129.16;;;11.60;91.51
71966;BME280;59836;52.132;5.442;2022-10-31T01:47:49;102125.88;;;11.58;91.53
71966;BME280;59836;52.132;5.442;2022-10-31T01:50:31;102124.47;;;11.55;91.80
71966;BME280;59836;52.132;5.442;2022-10-31T01:52:59;102121.41;;;11.51;91.38
71966;BME280;59836;52.132;5.442;2022-10-31T01:55:29;102120.16;;;11.42;91.12
71966;BME280;59836;52.132;5.442;2022-10-31T01:58:04;102121.13;;;11.36;91.46
71966;BME280;59836;52.132;5.442;2022-10-31T02:00:33;102109.47;;;11.35;91.25
71966;BME280;59836;52.132;5.442;2022-10-31T02:03:17;102116.75;;;11.35;91.12
71966;BME280;59836;52.132;5.442;2022-10-31T02:05:45;102116.75;;;11.35;91.17
71966;BME280;59836;52.132;5.442;2022-10-31T02:08:28;102116.19;;;11.33;91.03
71966;BME280;59836;52.132;5.442;2022-10-31T02:10:57;102121.28;;;11.29;91.27
71966;BME280;59836;52.132;5.442;2022-10-31T02:13:24;102117.75;;;11.29;91.03
71966;BME280;59836;52.132;5.442;2022-10-31T02:15:54;102112.78;;;11.26;90.83
71966;BME280;59836;52.132;5.442;2022-10-31T02:18:23;102111.41;;;11.23;90.58
71966;BME280;59836;52.132;5.442;2022-10-31T02:24:00;102120.75;;;11.15;90.82
71966;BME280;59836;52.132;5.442;2022-10-31T02:38:24;102119.88;;;10.98;90.66
71966;BME280;59836;52.132;5.442;2022-10-31T02:44:02;102125.56;;;10.84;90.37
71966;BME280;59836;52.132;5.442;2022-10-31T02:46:38;102120.16;;;10.84;90.61
71966;BME280;59836;52.132;5.442;2022-10-31T02:52:31;102132.44;;;10.75;90.49
71966;BME280;59836;52.132;5.442;2022-10-31T02:54:58;102134.09;;;10.76;90.71
71966;BME280;59836;52.132;5.442;2022-10-31T02:57:42;102132.44;;;10.75;90.38
71966;BME280;59836;52.132;5.442;2022-10-31T03:00:23;102129.13;;;10.73;90.41
71966;BME280;59836;52.132;5.442;2022-10-31T03:03:20;102126.31;;;10.68;90.42
71966;BME280;59836;52.132;5.442;2022-10-31T03:06:14;102125.72;;;10.66;90.18
71966;BME280;59836;52.132;5.442;2022-10-31T03:08:50;102122.41;;;10.63;90.32
71966;BME280;59836;52.132;5.442;2022-10-31T03:11:24;102122.91;;;10.60;89.92
71966;BME280;59836;52.132;5.442;2022-10-31T03:14:19;102123.97;;;10.59;90.12
71966;BME280;59836;52.132;5.442;2022-10-31T03:16:50;102120.66;;;10.57;90.01
71966;BME280;59836;52.132;5.442;2022-10-31T03:19:39;102136.34;;;10.55;90.56
71966;BME280;59836;52.132;5.442;2022-10-31T03:22:19;102129.53;;;10.53;90.38
71966;BME280;59836;52.132;5.442;2022-10-31T03:24:47;102130.00;;;10.50;90.27
71966;BME280;59836;52.132;5.442;2022-10-31T03:27:21;102136.13;;;10.45;89.76
71966;BME280;59836;52.132;5.442;2022-10-31T03:29:52;102136.59;;;10.42;89.69
71966;BME280;59836;52.132;5.442;2022-10-31T03:32:29;102138.50;;;10.41;89.95
71966;BME280;59836;52.132;5.442;2022-10-31T03:34:59;102143.06;;;10.41;90.07
71966;BME280;59836;52.132;5.442;2022-10-31T03:37:30;102135.63;;;10.36;89.58
71966;BME280;59836;52.132;5.442;2022-10-31T03:40:21;102134.78;;;10.36;89.89
71966;BME280;59836;52.132;5.442;2022-10-31T03:42:58;102131.75;;;10.32;89.82
71966;BME280;59836;52.132;5.442;2022-10-31T03:45:36;102133.03;;;10.29;89.56
71966;BME280;59836;52.132;5.442;2022-10-31T03:48:06;102135.97;;;10.28;89.94
71966;BME280;59836;52.132;5.442;2022-10-31T03:50:49;102129.97;;;10.26;89.77
71966;BME280;59836;52.132;5.442;2022-10-31T03:53:24;102139.38;;;10.23;90.17
71966;BME280;59836;52.132;5.442;2022-10-31T03:55:58;102130.06;;;10.19;89.78
71966;BME280;59836;52.132;5.442;2022-10-31T03:58:48;102133.84;;;10.18;89.68
71966;BME280;59836;52.132;5.442;2022-10-31T04:01:21;102135.97;;;10.16;89.51
71966;BME280;59836;52.132;5.442;2022-10-31T04:03:50;102132.66;;;10.14;89.79
71966;BME280;59836;52.132;5.442;2022-10-31T04:06:21;102131.47;;;10.10;90.23
71966;BME280;59836;52.132;5.442;2022-10-31T04:08:53;102131.97;;;10.07;89.38
71966;BME280;59836;52.132;5.442;2022-10-31T04:11:24;102131.97;;;10.07;89.54
71966;BME280;59836;52.132;5.442;2022-10-31T04:13:53;102127.00;;;10.03;89.73
71966;BME280;59836;52.132;5.442;2022-10-31T04:16:21;102129.13;;;10.01;89.90
71966;BME280;59836;52.132;5.442;2022-10-31T04:18:49;102139.97;;;10.01;89.73
71966;BME280;59836;52.132;5.442;2022-10-31T04:21:16;102138.31;;;10.00;89.60
71966;BME280;59836;52.132;5.442;2022-10-31T04:23:43;102141.03;;;10.00;89.68
71966;BME280;59836;52.132;5.442;2022-10-31T04:26:14;102140.44;;;9.98;89.49
71966;BME280;59836;52.132;5.442;2022-10-31T04:28:40;102139.25;;;9.94;89.11
71966;BME280;59836;52.132;5.442;2022-10-31T04:31:09;102130.53;;;9.92;89.31
71966;BME280;59836;52.132;5.442;2022-10-31T04:33:36;102133.13;;;9.87;89.56
71966;BME280;59836;52.132;5.442;2022-10-31T04:36:12;102131.47;;;9.86;89.77
71966;BME280;59836;52.132;5.442;2022-10-31T04:38:39;102139.81;;;9.84;89.74
71966;BME280;59836;52.132;5.442;2022-10-31T04:41:06;102129.09;;;9.78;89.19
71966;BME280;59836;52.132;5.442;2022-10-31T04:43:51;102132.00;;;9.76;89.40
71966;BME280;59836;52.132;5.442;2022-10-31T04:46:21;102126.59;;;9.76;89.36
71966;BME280;59836;52.132;5.442;2022-10-31T04:48:48;102119.53;;;9.75;89.52
71966;BME280;59836;52.132;5.442;2022-10-31T04:51:22;102120.00;;;9.72;89.25
71966;BME280;59836;52.132;5.442;2022-10-31T04:54:04;102130.00;;;9.71;89.35
71966;BME280;59836;52.132;5.442;2022-10-31T04:56:30;102131.06;;;9.70;89.35
71966;BME280;59836;52.132;5.442;2022-10-31T04:59:03;102128.81;;;9.67;89.31
71966;BME280;59836;52.132;5.442;2022-10-31T05:01:29;102118.22;;;9.66;89.36
71966;BME280;59836;52.132;5.442;2022-10-31T05:04:07;102122.81;;;9.65;88.92
71966;BME280;59836;52.132;5.442;2022-10-31T05:06:33;102118.66;;;9.63;89.64
71966;BME280;59836;52.132;5.442;2022-10-31T05:09:00;102114.09;;;9.63;89.23
71966;BME280;59836;52.132;5.442;2022-10-31T05:11:26;102116.81;;;9.63;89.20
71966;BME280;59836;52.132;5.442;2022-10-31T05:13:56;102117.88;;;9.62;89.18
71966;BME280;59836;52.132;5.442;2022-10-31T05:16:29;102112.44;;;9.62;89.08
71966;BME280;59836;52.132;5.442;2022-10-31T05:19:23;102117.88;;;9.62;89.69
71966;BME280;59836;52.132;5.442;2022-10-31T05:21:50;102118.06;;;9.60;89.53
71966;BME280;59836;52.132;5.442;2022-10-31T05:24:53;102115.63;;;9.59;89.44
71966;BME280;59836;52.132;5.442;2022-10-31T05:27:20;102112.06;;;9.58;89.69
71966;BME280;59836;52.132;5.442;2022-10-31T05:30:01;102114.41;;;9.55;89.91
71966;BME280;59836;52.132;5.442;2022-10-31T05:32:28;102104.06;;;9.52;90.39
71966;BME280;59836;52.132;5.442;2022-10-31T05:34:55;102116.19;;;9.49;90.12
71966;BME280;59836;52.132;5.442;2022-10-31T05:37:24;102109.94;;;9.49;89.94
71966;BME280;59836;52.132;5.442;2022-10-31T05:39:56;102112.28;;;9.45;90.25
71966;BME280;59836;52.132;5.442;2022-10-31T05:42:30;102108.75;;;9.44;90.33
71966;BME280;59836;52.132;5.442;2022-10-31T05:44:57;102112.50;;;9.43;89.81
71966;BME280;59836;52.132;5.442;2022-10-31T05:47:23;102108.75;;;9.44;89.55
71966;BME280;59836;52.132;5.442;2022-10-31T05:49:55;102105.22;;;9.44;89.78
71966;BME280;59836;52.132;5.442;2022-10-31T05:52:21;102094.59;;;9.42;90.12
71966;BME280;59836;52.132;5.442;2022-10-31T05:55:00;102101.66;;;9.43;89.59
71966;BME280;59836;52.132;5.442;2022-10-31T05:57:32;102094.00;;;9.40;90.15
71966;BME280;59836;52.132;5.442;2022-10-31T06:00:00;102098.00;;;9.38;90.42
71966;BME280;59836;52.132;5.442;2022-10-31T06:02:27;102089.66;;;9.39;90.30
71966;BME280;59836;52.132;5.442;2022-10-31T06:04:58;102089.06;;;9.37;90.75
71966;BME280;59836;52.132;5.442;2022-10-31T06:07:33;102094.72;;;9.36;91.12
71966;BME280;59836;52.132;5.442;2022-10-31T06:10:01;102093.88;;;9.35;91.01
71966;BME280;59836;52.132;5.442;2022-10-31T06:12:27;102095.53;;;9.36;91.01
71966;BME280;59836;52.132;5.442;2022-10-31T06:15:01;102098.47;;;9.35;91.03
71966;BME280;59836;52.132;5.442;2022-10-31T06:17:29;102085.16;;;9.33;91.45
71966;BME280;59836;52.132;5.442;2022-10-31T06:19:57;102094.31;;;9.32;91.14
71966;BME280;59836;52.132;5.442;2022-10-31T06:22:32;102095.38;;;9.31;91.00
71966;BME280;59836;52.132;5.442;2022-10-31T06:24:59;102091.03;;;9.30;91.57
71966;BME280;59836;52.132;5.442;2022-10-31T06:27:26;102088.69;;;9.34;91.58
71966;BME280;59836;52.132;5.442;2022-10-31T06:29:52;102094.13;;;9.34;91.29
71966;BME280;59836;52.132;5.442;2022-10-31T06:32:27;102092.22;;;9.34;91.26
71966;BME280;59836;52.132;5.442;2022-10-31T06:34:53;102097.63;;;9.34;91.39
71966;BME280;59836;52.132;5.442;2022-10-31T06:37:22;102093.88;;;9.35;91.76
71966;BME280;59836;52.132;5.442;2022-10-31T06:39:59;102098.00;;;9.38;91.85
71966;BME280;59836;52.132;5.442;2022-10-31T06:42:26;102100.34;;;9.34;92.55
71966;BME280;59836;52.132;5.442;2022-10-31T06:45:02;102099.28;;;9.35;92.58
71966;BME280;59836;52.132;5.442;2022-10-31T06:47:28;102109.66;;;9.38;93.14
71966;BME280;59836;52.132;5.442;2022-10-31T06:52:53;102105.91;;;9.39;93.49
71966;BME280;59836;52.132;5.442;2022-10-31T06:55:42;102109.19;;;9.41;93.40
71966;BME280;59836;52.132;5.442;2022-10-31T06:58:10;102112.97;;;9.40;93.49
71966;BME280;59836;52.132;5.442;2022-10-31T07:00:37;102117.91;;;9.43;93.73
71966;BME280;59836;52.132;5.442;2022-10-31T07:03:12;102112.03;;;9.47;93.35
71966;BME280;59836;52.132;5.442;2022-10-31T07:05:39;102112.63;;;9.49;93.53
71966;BME280;59836;52.132;5.442;2022-10-31T07:08:08;102109.72;;;9.50;93.44
71966;BME280;59836;52.132;5.442;2022-10-31T07:10:36;102107.34;;;9.54;93.44
71966;BME280;59836;52.132;5.442;2022-10-31T07:13:13;102119.84;;;9.55;94.12
71966;BME280;59836;52.132;5.442;2022-10-31T07:15:50;102109.34;;;9.58;93.50
71966;BME280;59836;52.132;5.442;2022-10-31T07:18:47;102108.09;;;9.61;94.12
71966;BME280;59836;52.132;5.442;2022-10-31T07:21:17;102112.19;;;9.64;93.85
71966;BME280;59836;52.132;5.442;2022-10-31T07:23:47;102107.63;;;9.64;93.86
71966;BME280;59836;52.132;5.442;2022-10-31T07:26:18;102110.91;;;9.66;94.18
71966;BME280;59836;52.132;5.442;2022-10-31T07:29:10;102108.81;;;9.68;93.69
71966;BME280;59836;52.132;5.442;2022-10-31T07:31:37;102103.72;;;9.72;94.17
71966;BME280;59836;52.132;5.442;2022-10-31T07:34:03;102108.47;;;9.77;93.83
71966;BME280;59836;52.132;5.442;2022-10-31T07:36:50;102112.38;;;9.81;94.41
71966;BME280;59836;52.132;5.442;2022-10-31T07:39:17;102123.34;;;9.86;94.38
71966;BME280;59836;52.132;5.442;2022-10-31T07:41:43;102120.16;;;9.89;94.77
71966;BME280;59836;52.132;5.442;2022-10-31T07:44:12;102122.63;;;9.90;94.39
71966;BME280;59836;52.132;5.442;2022-10-31T07:47:04;102125.47;;;9.96;94.85
71966;BME280;59836;52.132;5.442;2022-10-31T07:49:31;102120.41;;;9.99;94.93
71966;BME280;59836;52.132;5.442;2022-10-31T07:51:57;102127.00;;;10.03;94.76
71966;BME280;59836;52.132;5.442;2022-10-31T07:54:24;102126.19;;;10.03;94.32
71966;BME280;59836;52.132;5.442;2022-10-31T07:57:06;102126.56;;;10.07;94.81
71966;BME280;59836;52.132;5.442;2022-10-31T07:59:32;102121.22;;;10.12;95.03
71966;BME280;59836;52.132;5.442;2022-10-31T08:02:01;102121.34;;;10.17;95.20
71966;BME280;59836;52.132;5.442;2022-10-31T08:04:27;102127.13;;;10.21;95.31
71966;BME280;59836;52.132;5.442;2022-10-31T08:06:54;102127.94;;;10.21;94.88
71966;BME280;59836;52.132;5.442;2022-10-31T08:09:25;102137.84;;;10.27;94.97
71966;BME280;59836;52.132;5.442;2022-10-31T08:11:52;102134.06;;;10.28;95.23
71966;BME280;59836;52.132;5.442;2022-10-31T08:14:19;102134.44;;;10.32;94.85
71966;BME280;59836;52.132;5.442;2022-10-31T08:16:46;102136.44;;;10.37;94.91
71966;BME280;59836;52.132;5.442;2022-10-31T08:19:18;102139.31;;;10.42;95.20
71966;BME280;59836;52.132;5.442;2022-10-31T08:21:45;102141.31;;;10.46;95.22
71966;BME280;59836;52.132;5.442;2022-10-31T08:24:22;102141.44;;;10.52;95.33
71966;BME280;59836;52.132;5.442;2022-10-31T08:26:48;102143.44;;;10.56;95.24
71966;BME280;59836;52.132;5.442;2022-10-31T08:29:15;102144.13;;;10.63;95.13
71966;BME280;59836;52.132;5.442;2022-10-31T08:31:42;102132.06;;;10.71;95.27
71966;BME280;59836;52.132;5.442;2022-10-31T08:34:09;102131.47;;;10.81;94.96
71966;BME280;59836;52.132;5.442;2022-10-31T08:36:35;102123.44;;;10.86;94.86
71966;BME280;59836;52.132;5.442;2022-10-31T08:39:02;102127.91;;;10.92;94.97
71966;BME280;59836;52.132;5.442;2022-10-31T08:41:29;102127.44;;;10.96;95.29
71966;BME280;59836;52.132;5.442;2022-10-31T08:43:56;102119.41;;;11.01;95.27
71966;BME280;59836;52.132;5.442;2022-10-31T08:46:23;102126.00;;;11.05;95.14
71966;BME280;59836;52.132;5.442;2022-10-31T08:48:50;102123.88;;;11.07;95.18
71966;BME280;59836;52.132;5.442;2022-10-31T08:51:35;102125.03;;;11.11;95.24
71966;BME280;59836;52.132;5.442;2022-10-31T08:54:03;102115.81;;;11.12;95.18
71966;BME280;59836;52.132;5.442;2022-10-31T08:56:30;102106.09;;;11.16;95.51
71966;BME280;59836;52.132;5.442;2022-10-31T08:59:13;102105.13;;;11.22;95.29
71966;BME280;59836;52.132;5.442;2022-10-31T09:01:39;102103.56;;;11.27;95.07
71966;BME280;59836;52.132;5.442;2022-10-31T09:04:06;102107.47;;;11.31;95.42
71966;BME280;59836;52.132;5.442;2022-10-31T09:06:34;102111.59;;;11.33;95.44
71966;BME280;59836;52.132;5.442;2022-10-31T09:09:10;102107.31;;;11.37;95.47
71966;BME280;59836;52.132;5.442;2022-10-31T09:11:37;102109.28;;;11.42;95.57
71966;BME280;59836;52.132;5.442;2022-10-31T09:14:03;102094.16;;;11.46;95.46
71966;BME280;59836;52.132;5.442;2022-10-31T09:16:32;102085.13;;;11.58;95.80
71966;BME280;59836;52.132;5.442;2022-10-31T09:19:03;102080.34;;;11.65;95.53
71966;BME280;59836;52.132;5.442;2022-10-31T09:21:41;102075.56;;;11.72;95.86
71966;BME280;59836;52.132;5.442;2022-10-31T09:24:22;102069.97;;;11.79;95.82
71966;BME280;59836;52.132;5.442;2022-10-31T09:26:48;102074.75;;;11.89;96.22
71966;BME280;59836;52.132;5.442;2022-10-31T09:29:15;102062.88;;;11.95;96.38
71966;BME280;59836;52.132;5.442;2022-10-31T09:31:59;102054.56;;;12.02;96.39
71966;BME280;59836;52.132;5.442;2022-10-31T09:34:25;102054.91;;;12.05;96.45
71966;BME280;59836;52.132;5.442;2022-10-31T09:36:52;102049.06;;;12.14;96.99
71966;BME280;59836;52.132;5.442;2022-10-31T09:39:19;102043.91;;;12.17;96.94
71966;BME280;59836;52.132;5.442;2022-10-31T09:42:01;102044.28;;;12.26;96.71
71966;BME280;59836;52.132;5.442;2022-10-31T09:51:48;102044.63;;;12.52;96.85
71966;BME280;59836;52.132;5.442;2022-10-31T09:54:21;102046.09;;;12.60;97.08
71966;BME280;59836;52.132;5.442;2022-10-31T09:56:57;102049.19;;;12.68;97.11
71966;BME280;59836;52.132;5.442;2022-10-31T09:59:31;102049.50;;;12.72;97.29
71966;BME280;59836;52.132;5.442;2022-10-31T10:02:04;102037.59;;;12.78;97.13
71966;BME280;59836;52.132;5.442;2022-10-31T10:07:19;102036.94;;;12.93;97.65
71966;BME280;59836;52.132;5.442;2022-10-31T10:09:48;102043.03;;;13.01;97.59
71966;BME280;59836;52.132;5.442;2022-10-31T10:12:27;102040.09;;;13.07;96.85
71966;BME280;59836;52.132;5.442;2022-10-31T10:23:41;102026.09;;;13.26;96.57
71966;BME280;59836;52.132;5.442;2022-10-31T10:26:15;102028.03;;;13.31;96.61
71966;BME280;59836;52.132;5.442;2022-10-31T10:28:45;102028.59;;;13.33;96.33
71966;BME280;59836;52.132;5.442;2022-10-31T10:31:16;102012.81;;;13.35;96.26
71966;BME280;59836;52.132;5.442;2022-10-31T10:36:43;102007.19;;;13.41;96.81
71966;BME280;59836;52.132;5.442;2022-10-31T10:39:16;102007.19;;;13.41;96.42
71966;BME280;59836;52.132;5.442;2022-10-31T10:41:48;101995.78;;;13.45;96.67
71966;BME280;59836;52.132;5.442;2022-10-31T10:44:44;101992.25;;;13.49;95.60
71966;BME280;59836;52.132;5.442;2022-10-31T10:47:41;101993.38;;;13.53;95.45
71966;BME280;59836;52.132;5.442;2022-10-31T10:50:16;101989.03;;;13.57;94.90
71966;BME280;59836;52.132;5.442;2022-10-31T10:53:02;101977.38;;;13.62;94.73
71966;BME280;59836;52.132;5.442;2022-10-31T10:55:41;101964.59;;;13.68;94.61
71966;BME280;59836;52.132;5.442;2022-10-31T10:58:10;101958.63;;;13.76;95.19
71966;BME280;59836;52.132;5.442;2022-10-31T11:00:45;101961.38;;;13.81;95.71
71966;BME280;59836;52.132;5.442;2022-10-31T11:03:17;101957.59;;;13.87;95.81
71966;BME280;59836;52.132;5.442;2022-10-31T11:09:09;101931.44;;;13.92;94.82
71966;BME280;59836;52.132;5.442;2022-10-31T11:11:43;101922.75;;;13.95;94.81
71966;BME280;59836;52.132;5.442;2022-10-31T11:17:38;101894.94;;;13.98;94.71
71966;BME280;59836;52.132;5.442;2022-10-31T11:23:27;101903.94;;;14.03;94.23
71966;BME280;59836;52.132;5.442;2022-10-31T11:25:57;101908.88;;;14.07;94.45
71966;BME280;59836;52.132;5.442;2022-10-31T11:28:38;101908.06;;;14.11;94.07
71966;BME280;59836;52.132;5.442;2022-10-31T11:31:15;101920.09;;;14.15;94.06
71966;BME280;59836;52.132;5.442;2022-10-31T11:33:47;101915.47;;;14.21;93.10
71966;BME280;59836;52.132;5.442;2022-10-31T11:36:33;101899.94;;;14.22;92.98
71966;BME280;59836;52.132;5.442;2022-10-31T11:39:18;101899.94;;;14.22;92.77
71966;BME280;59836;52.132;5.442;2022-10-31T11:41:46;101883.03;;;14.25;92.95
71966;BME280;59836;52.132;5.442;2022-10-31T11:44:35;101880.84;;;14.27;93.74
71966;BME280;59836;52.132;5.442;2022-10-31T11:47:04;101892.31;;;14.29;93.71
71966;BME280;59836;52.132;5.442;2022-10-31T11:49:35;101885.78;;;14.30;92.69
71966;BME280;59836;52.132;5.442;2022-10-31T11:52:37;101881.13;;;14.30;92.45
71966;BME280;59836;52.132;5.442;2022-10-31T11:55:17;101876.22;;;14.32;92.27
71966;BME280;59836;52.132;5.442;2022-10-31T11:57:51;101859.00;;;14.32;91.88
71966;BME280;59836;52.132;5.442;2022-10-31T12:02:51;101832.53;;;14.32;92.59
71966;BME280;59836;52.132;5.442;2022-10-31T12:05:30;101821.34;;;14.34;92.86
71966;BME280;59836;52.132;5.442;2022-10-31T12:07:59;101804.97;;;14.34;92.48
71966;BME280;59836;52.132;5.442;2022-10-31T12:10:45;101831.16;;;14.35;93.14
71966;BME280;59836;52.132;5.442;2022-10-31T12:13:29;101803.63;;;14.31;92.21
71966;BME280;59836;52.132;5.442;2022-10-31T12:16:09;101814.53;;;14.31;92.93
71966;BME280;59836;52.132;5.442;2022-10-31T12:18:53;101811.53;;;14.28;92.65
71966;BME280;59836;52.132;5.442;2022-10-31T12:21:43;101799.00;;;14.27;92.38
71966;BME280;59836;52.132;5.442;2022-10-31T12:30:09;101774.16;;;14.28;92.94
71966;BME280;59836;52.132;5.442;2022-10-31T12:32:50;101766.22;;;14.32;93.30
71966;BME280;59836;52.132;5.442;2022-10-31T12:35:40;101764.59;;;14.36;93.36
71966;BME280;59836;52.132;5.442;2022-10-31T12:42:02;101744.13;;;14.44;93.08
71966;BME280;59836;52.132;5.442;2022-10-31T12:44:35;101750.38;;;14.44;92.70
71966;BME280;59836;52.132;5.442;2022-10-31T12:52:51;101728.84;;;14.53;91.96
71966;BME280;59836;52.132;5.442;2022-10-31T12:58:10;101710.81;;;14.57;91.96
71966;BME280;59836;52.132;5.442;2022-10-31T13:00:44;101709.44;;;14.60;91.93
71966;BME280;59836;52.132;5.442;2022-10-31T13:05:54;101709.44;;;14.65;92.79
71966;BME280;59836;52.132;5.442;2022-10-31T13:08:30;101706.16;;;14.68;92.70
71966;BME280;59836;52.132;5.442;2022-10-31T13:11:10;101688.44;;;14.71;92.96
71966;BME280;59836;52.132;5.442;2022-10-31T13:16:46;101695.78;;;14.75;92.87
71966;BME280;59836;52.132;5.442;2022-10-31T13:19:20;101679.94;;;14.78;93.34
71966;BME280;59836;52.132;5.442;2022-10-31T13:21:59;101663.56;;;14.78;92.95
71966;BME280;59836;52.132;5.442;2022-10-31T13:24:39;101653.19;;;14.80;92.69
71966;BME280;59836;52.132;5.442;2022-10-31T13:27:23;101650.97;;;14.82;93.02
71966;BME280;59836;52.132;5.442;2022-10-31T13:30:06;101645.53;;;14.82;93.39
71966;BME280;59836;52.132;5.442;2022-10-31T13:32:49;101650.97;;;14.82;93.35
71966;BME280;59836;52.132;5.442;2022-10-31T13:35:31;101650.19;;;14.81;93.56
71966;BME280;59836;52.132;5.442;2022-10-31T13:40:54;101635.38;;;14.87;93.30
71966;BME280;59836;52.132;5.442;2022-10-31T13:44:01;101625.28;;;14.93;93.10
71966;BME280;59836;52.132;5.442;2022-10-31T13:48:59;101610.19;;;15.01;93.92
71966;BME280;59836;52.132;5.442;2022-10-31T13:51:31;101607.75;;;15.04;93.70
71966;BME280;59836;52.132;5.442;2022-10-31T13:54:06;101594.06;;;15.10;93.29
71966;BME280;59836;52.132;5.442;2022-10-31T13:56:48;101595.38;;;15.12;93.12
71966;BME280;59836;52.132;5.442;2022-10-31T13:59:27;101596.22;;;15.13;92.41
71966;BME280;59836;52.132;5.442;2022-10-31T14:01:56;101588.56;;;15.15;92.74
71966;BME280;59836;52.132;5.442;2022-10-31T14:07:53;101587.72;;;15.14;92.45
71966;BME280;59836;52.132;5.442;2022-10-31T14:10:26;101583.09;;;15.15;92.41
71966;BME280;59836;52.132;5.442;2022-10-31T14:13:07;101577.63;;;15.15;92.38
71966;BME280;59836;52.132;5.442;2022-10-31T14:15:43;101582.25;;;15.14;92.06
71966;BME280;59836;52.132;5.442;2022-10-31T14:18:39;101572.72;;;15.12;92.84
71966;BME280;59836;52.132;5.442;2022-10-31T14:23:52;101558.25;;;15.11;92.44
71966;BME280;59836;52.132;5.442;2022-10-31T14:34:55;101536.19;;;15.02;92.38
71966;BME280;59836;52.132;5.442;2022-10-31T14:43:01;101520.34;;;14.99;92.28
71966;BME280;59836;52.132;5.442;2022-10-31T14:45:55;101509.44;;;14.99;92.38
71966;BME280;59836;52.132;5.442;2022-10-31T14:48:59;101508.59;;;14.99;92.86
71966;BME280;59836;52.132;5.442;2022-10-31T14:51:40;101500.16;;;14.95;92.54
71966;BME280;59836;52.132;5.442;2022-10-31T14:54:12;101502.06;;;14.95;92.48
71966;BME280;59836;52.132;5.442;2022-10-31T14:56:48;101500.16;;;14.95;92.72
71966;BME280;59836;52.132;5.442;2022-10-31T14:59:52;101502.34;;;14.93;92.86
71966;BME280;59836;52.132;5.442;2022-10-31T15:02:45;101510.81;;;14.91;92.59
71966;BME280;59836;52.132;5.442;2022-10-31T15:05:28;101502.94;;;14.90;92.73
71966;BME280;59836;52.132;5.442;2022-10-31T15:07:57;101502.94;;;14.90;92.76
71966;BME280;59836;52.132;5.442;2022-10-31T15:10:36;101499.38;;;14.89;92.59
71966;BME280;59836;52.132;5.442;2022-10-31T15:13:15;101498.56;;;14.89;92.78
71966;BME280;59836;52.132;5.442;2022-10-31T15:15:44;101493.09;;;14.89;92.53